createdAt,value
2018-01-17T00:00:43.517Z,89.25
2018-01-17T00:01:49.805Z,89.42
2018-01-17T00:02:56.315Z,89.62
2018-01-17T00:04:03.328Z,89.49
2018-01-17T00:05:09.570Z,89.15
2018-01-17T00:06:16.381Z,89.17
2018-01-17T00:07:23.377Z,89.28
2018-01-17T00:08:29.663Z,89.05
2018-01-17T00:09:40.975Z,89.42
2018-01-17T00:10:47.332Z,89.51
2018-01-17T00:12:01.085Z,89.45
2018-01-17T00:13:07.444Z,89.31
2018-01-17T00:14:13.851Z,89.14
2018-01-17T00:15:20.199Z,89.16
2018-01-17T00:16:26.530Z,89.33
2018-01-17T00:17:32.697Z,89.48
2018-01-17T00:18:42.391Z,89.91
2018-01-17T00:19:53.686Z,89.61
2018-01-17T00:21:00.040Z,89.40
2018-01-17T00:22:15.977Z,89.29
2018-01-17T00:23:22.213Z,89.38
2018-01-17T00:24:29.305Z,89.72
2018-01-17T00:25:35.266Z,89.55
2018-01-17T00:26:41.426Z,89.60
2018-01-17T00:27:48.085Z,89.29
2018-01-17T00:28:55.458Z,89.42
2018-01-17T00:30:02.504Z,89.34
2018-01-17T00:31:08.665Z,89.33
2018-01-17T00:32:15.007Z,89.32
2018-01-17T00:33:22.146Z,89.53
2018-01-17T00:34:30.478Z,89.63
2018-01-17T00:35:36.717Z,89.61
2018-01-17T00:36:44.130Z,89.70
2018-01-17T00:37:51.909Z,89.83
2018-01-17T00:38:58.160Z,90.03
2018-01-17T00:40:06.463Z,89.99
2018-01-17T00:41:13.104Z,89.91
2018-01-17T00:42:19.616Z,89.94
2018-01-17T00:43:25.815Z,89.87
2018-01-17T00:44:39.500Z,89.56
2018-01-17T00:45:45.766Z,89.53
2018-01-17T00:46:52.129Z,89.35
2018-01-17T00:47:58.350Z,89.71
2018-01-17T00:49:03.908Z,89.52
2018-01-17T00:50:10.925Z,89.72
2018-01-17T00:51:16.575Z,89.50
2018-01-17T00:52:23.517Z,89.22
2018-01-17T00:53:30.518Z,89.53
2018-01-17T00:54:37.495Z,89.60
2018-01-17T00:55:43.708Z,89.56
2018-01-17T00:56:49.915Z,89.49
2018-01-17T00:57:57.059Z,89.37
2018-01-17T00:59:04.886Z,89.47
2018-01-17T01:00:11.232Z,89.49
2018-01-17T01:01:17.499Z,89.54
2018-01-17T01:02:24.420Z,89.50
2018-01-17T01:03:31.832Z,89.44
2018-01-17T01:04:39.361Z,89.39
2018-01-17T01:05:46.453Z,89.00
2018-01-17T01:06:53.424Z,88.88
2018-01-17T01:07:59.855Z,89.14
2018-01-17T01:09:05.402Z,89.16
2018-01-17T01:10:12.674Z,89.48
2018-01-17T01:11:19.578Z,89.54
2018-01-17T01:12:26.487Z,89.38
2018-01-17T01:13:32.858Z,89.30
2018-01-17T01:14:39.516Z,89.41
2018-01-17T01:15:45.694Z,89.34
2018-01-17T01:16:52.003Z,89.55
2018-01-17T01:17:58.374Z,89.50
2018-01-17T01:19:04.513Z,89.50
2018-01-17T01:20:10.395Z,89.44
2018-01-17T01:21:17.200Z,89.29
2018-01-17T01:22:23.594Z,89.07
2018-01-17T01:23:30.881Z,88.96
2018-01-17T01:24:38.134Z,89.05
2018-01-17T01:25:44.078Z,89.19
2018-01-17T01:26:50.261Z,88.86
2018-01-17T01:27:56.913Z,89.00
2018-01-17T01:29:03.454Z,89.28
2018-01-17T01:30:10.477Z,89.32
2018-01-17T01:31:21.971Z,89.51
2018-01-17T01:32:28.297Z,89.17
2018-01-17T01:33:34.800Z,89.21
2018-01-17T01:34:41.158Z,88.96
2018-01-17T01:35:47.469Z,88.83
2018-01-17T01:36:53.839Z,88.87
2018-01-17T01:38:00.558Z,88.58
2018-01-17T01:39:06.167Z,88.58
2018-01-17T01:40:12.788Z,88.83
2018-01-17T01:41:19.337Z,88.92
2018-01-17T01:42:25.630Z,88.91
2018-01-17T01:43:32.734Z,89.08
2018-01-17T01:44:38.964Z,88.65
2018-01-17T01:45:45.227Z,88.72
2018-01-17T01:46:52.587Z,88.74
2018-01-17T01:47:58.729Z,88.56
2018-01-17T01:49:04.958Z,88.88
2018-01-17T01:50:11.751Z,88.74
2018-01-17T01:51:18.711Z,88.75
2018-01-17T01:52:24.910Z,89.03
2018-01-17T01:53:31.836Z,88.92
2018-01-17T01:54:38.105Z,89.13
2018-01-17T01:55:44.433Z,88.91
2018-01-17T01:56:51.465Z,88.72
2018-01-17T01:57:58.285Z,88.79
2018-01-17T01:59:05.390Z,88.95
2018-01-17T02:00:12.416Z,88.98
2018-01-17T02:01:18.784Z,88.93
2018-01-17T02:02:26.837Z,89.17
2018-01-17T02:03:41.898Z,89.11
2018-01-17T02:04:48.719Z,89.24
2018-01-17T02:05:55.953Z,89.09
2018-01-17T02:07:02.237Z,88.96
2018-01-17T02:08:08.549Z,89.15
2018-01-17T02:09:14.791Z,89.11
2018-01-17T02:10:21.685Z,88.75
2018-01-17T02:11:28.911Z,88.62
2018-01-17T02:12:35.243Z,88.62
2018-01-17T02:13:41.514Z,88.68
2018-01-17T02:14:47.729Z,88.73
2018-01-17T02:15:54.460Z,88.52
2018-01-17T02:17:00.733Z,88.25
2018-01-17T02:18:07.507Z,88.29
2018-01-17T02:19:13.702Z,88.60
2018-01-17T02:20:23.382Z,88.75
2018-01-17T02:21:29.632Z,89.12
2018-01-17T02:22:35.703Z,89.01
2018-01-17T02:23:46.880Z,88.85
2018-01-17T02:24:53.083Z,88.75
2018-01-17T02:25:59.920Z,88.38
2018-01-17T02:27:06.787Z,88.35
2018-01-17T02:28:12.998Z,88.15
2018-01-17T02:29:19.775Z,88.49
2018-01-17T02:30:25.600Z,88.42
2018-01-17T02:31:31.868Z,88.61
2018-01-17T02:32:38.147Z,88.47
2018-01-17T02:33:44.441Z,88.53
2018-01-17T02:34:51.297Z,88.53
2018-01-17T02:35:57.492Z,88.42
2018-01-17T02:37:03.633Z,88.14
2018-01-17T02:38:14.336Z,87.90
2018-01-17T02:39:20.478Z,87.83
2018-01-17T02:40:38.338Z,88.15
2018-01-17T02:41:46.093Z,88.28
2018-01-17T02:42:58.952Z,87.92
2018-01-17T02:44:05.258Z,88.08
2018-01-17T02:45:11.534Z,87.82
2018-01-17T02:46:17.719Z,87.98
2018-01-17T02:47:25.756Z,88.06
2018-01-17T02:48:31.986Z,88.02
2018-01-17T02:49:38.189Z,87.91
2018-01-17T02:50:44.377Z,87.71
2018-01-17T02:51:50.537Z,87.84
2018-01-17T02:52:56.775Z,87.75
2018-01-17T02:54:02.972Z,87.66
2018-01-17T02:55:09.221Z,87.66
2018-01-17T02:56:15.359Z,87.69
2018-01-17T02:57:22.058Z,87.77
2018-01-17T02:58:28.895Z,87.75
2018-01-17T02:59:35.059Z,87.71
2018-01-17T03:00:41.668Z,87.83
2018-01-17T03:01:47.879Z,87.66
2018-01-17T03:02:56.687Z,87.81
2018-01-17T03:04:02.910Z,87.74
2018-01-17T03:05:09.197Z,87.92
2018-01-17T03:06:16.732Z,87.89
2018-01-17T03:07:23.192Z,87.80
2018-01-17T03:08:29.567Z,87.74
2018-01-17T03:09:35.846Z,87.76
2018-01-17T03:10:42.860Z,87.88
2018-01-17T03:11:50.086Z,87.75
2018-01-17T03:12:57.434Z,87.97
2018-01-17T03:14:03.740Z,88.06
2018-01-17T03:15:09.894Z,87.96
2018-01-17T03:16:16.087Z,87.93
2018-01-17T03:17:22.009Z,88.05
2018-01-17T03:18:28.617Z,87.92
2018-01-17T03:19:35.810Z,87.93
2018-01-17T03:20:41.624Z,88.28
2018-01-17T03:21:48.163Z,88.19
2018-01-17T03:22:56.230Z,88.26
2018-01-17T03:24:02.837Z,88.57
2018-01-17T03:25:09.553Z,88.57
2018-01-17T03:26:17.289Z,88.61
2018-01-17T03:27:25.101Z,88.48
2018-01-17T03:28:30.943Z,88.67
2018-01-17T03:29:37.210Z,88.88
2018-01-17T03:30:48.223Z,88.94
2018-01-17T03:31:58.995Z,89.40
2018-01-17T03:33:07.384Z,89.44
2018-01-17T03:34:13.533Z,89.45
2018-01-17T03:35:20.742Z,89.52
2018-01-17T03:36:27.637Z,89.49
2018-01-17T03:37:34.746Z,89.42
2018-01-17T03:38:41.457Z,89.38
2018-01-17T03:39:48.644Z,89.23
2018-01-17T03:40:54.771Z,89.37
2018-01-17T03:42:01.621Z,89.53
2018-01-17T03:43:07.869Z,89.55
2018-01-17T03:44:14.543Z,89.45
2018-01-17T03:45:20.974Z,89.40
2018-01-17T03:46:27.796Z,89.14
2018-01-17T03:47:34.094Z,89.21
2018-01-17T03:48:41.022Z,89.08
2018-01-17T03:49:48.421Z,89.05
2018-01-17T03:50:55.748Z,88.93
2018-01-17T03:52:06.683Z,88.78
2018-01-17T03:53:12.816Z,88.96
2018-01-17T03:54:19.322Z,89.05
2018-01-17T03:55:25.737Z,89.29
2018-01-17T03:56:36.833Z,89.12
2018-01-17T03:57:43.703Z,89.18
2018-01-17T03:58:49.939Z,89.39
2018-01-17T03:59:56.626Z,89.03
2018-01-17T04:01:02.904Z,89.04
2018-01-17T04:02:15.741Z,88.98
2018-01-17T04:03:21.944Z,89.04
2018-01-17T04:04:28.305Z,89.29
2018-01-17T04:05:34.105Z,89.14
2018-01-17T04:06:41.290Z,89.27
2018-01-17T04:07:48.123Z,88.89
2018-01-17T04:08:54.386Z,88.86
2018-01-17T04:10:00.637Z,88.84
2018-01-17T04:11:06.493Z,88.94
2018-01-17T04:12:12.714Z,88.93
2018-01-17T04:13:18.858Z,89.07
2018-01-17T04:14:25.199Z,89.38
2018-01-17T04:15:32.557Z,89.43
2018-01-17T04:16:39.101Z,89.56
2018-01-17T04:17:45.429Z,89.55
2018-01-17T04:18:51.418Z,89.73
2018-01-17T04:19:57.361Z,89.81
2018-01-17T04:21:03.652Z,89.74
2018-01-17T04:22:10.390Z,89.65
2018-01-17T04:23:16.966Z,89.57
2018-01-17T04:24:28.347Z,89.57
2018-01-17T04:25:34.615Z,89.75
2018-01-17T04:26:40.886Z,89.89
2018-01-17T04:27:47.687Z,89.91
2018-01-17T04:28:53.948Z,89.83
2018-01-17T04:30:00.255Z,89.95
2018-01-17T04:31:06.276Z,89.93
2018-01-17T04:32:12.903Z,90.20
2018-01-17T04:33:19.172Z,90.12
2018-01-17T04:34:26.003Z,90.08
2018-01-17T04:35:33.159Z,90.02
2018-01-17T04:36:45.662Z,89.98
2018-01-17T04:37:51.881Z,89.94
2018-01-17T04:39:02.751Z,89.73
2018-01-17T04:40:10.336Z,89.70
2018-01-17T04:41:17.662Z,89.58
2018-01-17T04:42:24.311Z,89.41
2018-01-17T04:43:30.556Z,89.35
2018-01-17T04:44:36.755Z,89.28
2018-01-17T04:45:43.001Z,89.34
2018-01-17T04:46:49.312Z,89.32
2018-01-17T04:47:56.480Z,89.33
2018-01-17T04:49:02.741Z,89.24
2018-01-17T04:50:09.036Z,89.31
2018-01-17T04:51:15.303Z,89.36
2018-01-17T04:52:21.532Z,89.30
2018-01-17T04:53:27.497Z,88.94
2018-01-17T04:54:33.741Z,88.48
2018-01-17T04:55:40.040Z,88.40
2018-01-17T04:56:46.211Z,88.52
2018-01-17T04:57:52.108Z,88.66
2018-01-17T04:58:58.604Z,88.57
2018-01-17T05:00:05.252Z,88.77
2018-01-17T05:01:14.271Z,88.81
2018-01-17T05:02:22.721Z,88.74
2018-01-17T05:03:31.924Z,88.71
2018-01-17T05:04:41.310Z,88.67
2018-01-17T05:05:49.172Z,88.88
2018-01-17T05:06:56.551Z,88.75
2018-01-17T05:08:05.476Z,88.83
2018-01-17T05:09:13.611Z,89.00
2018-01-17T05:10:20.691Z,89.08
2018-01-17T05:11:30.499Z,89.04
2018-01-17T05:12:40.064Z,89.07
2018-01-17T05:13:48.759Z,88.93
2018-01-17T05:14:56.329Z,88.88
2018-01-17T05:16:05.377Z,88.98
2018-01-17T05:17:13.469Z,88.97
2018-01-17T05:18:19.697Z,89.01
2018-01-17T05:19:26.836Z,88.99
2018-01-17T05:20:33.031Z,88.96
2018-01-17T05:21:39.372Z,88.64
2018-01-17T05:22:45.617Z,88.63
2018-01-17T05:23:51.755Z,88.60
2018-01-17T05:24:59.588Z,88.34
2018-01-17T05:26:05.834Z,88.26
2018-01-17T05:27:12.087Z,88.10
2018-01-17T05:28:19.017Z,88.18
2018-01-17T05:29:25.258Z,88.04
2018-01-17T05:30:31.516Z,87.89
2018-01-17T05:31:38.131Z,87.74
2018-01-17T05:32:44.266Z,87.74
2018-01-17T05:33:50.437Z,87.85
2018-01-17T05:34:56.548Z,87.62
2018-01-17T05:36:02.804Z,87.36
2018-01-17T05:37:09.442Z,87.49
2018-01-17T05:38:16.419Z,87.35
2018-01-17T05:39:22.575Z,87.52
2018-01-17T05:40:28.792Z,87.67
2018-01-17T05:41:41.883Z,87.62
2018-01-17T05:42:48.879Z,87.91
2018-01-17T05:43:55.163Z,88.25
2018-01-17T05:45:01.371Z,88.23
2018-01-17T05:46:07.601Z,88.43
2018-01-17T05:47:15.092Z,88.67
2018-01-17T05:48:21.269Z,88.65
2018-01-17T05:49:28.200Z,88.81
2018-01-17T05:50:34.429Z,89.06
2018-01-17T05:51:40.745Z,89.94
2018-01-17T05:52:48.579Z,90.23
2018-01-17T05:53:55.224Z,90.23
2018-01-17T05:55:01.476Z,90.25
2018-01-17T05:56:07.775Z,90.83
2018-01-17T05:57:13.691Z,91.05
2018-01-17T05:58:19.859Z,91.35
2018-01-17T05:59:26.057Z,92.00
2018-01-17T06:00:33.218Z,92.58
2018-01-17T06:01:39.471Z,92.69
2018-01-17T06:02:46.115Z,92.74
2018-01-17T06:03:52.984Z,92.91
2018-01-17T06:04:59.122Z,93.01
2018-01-17T06:06:05.338Z,93.44
2018-01-17T06:07:11.302Z,93.23
2018-01-17T06:08:18.265Z,93.12
2018-01-17T06:09:24.466Z,93.32
2018-01-17T06:10:30.782Z,93.21
2018-01-17T06:11:37.327Z,93.22
2018-01-17T06:12:49.062Z,93.16
2018-01-17T06:13:56.084Z,93.36
2018-01-17T06:15:01.964Z,93.85
2018-01-17T06:16:08.262Z,93.86
2018-01-17T06:17:15.329Z,93.94
2018-01-17T06:18:21.666Z,94.04
2018-01-17T06:19:27.960Z,93.78
2018-01-17T06:20:35.554Z,93.84
2018-01-17T06:21:41.502Z,93.41
2018-01-17T06:22:48.454Z,93.35
2018-01-17T06:23:54.625Z,92.98
2018-01-17T06:25:00.929Z,92.71
2018-01-17T06:26:06.836Z,92.66
2018-01-17T06:27:13.419Z,92.66
2018-01-17T06:28:19.586Z,92.65
2018-01-17T06:29:25.868Z,92.56
2018-01-17T06:30:32.379Z,92.39
2018-01-17T06:31:38.725Z,92.13
2018-01-17T06:32:44.876Z,92.09
2018-01-17T06:33:50.830Z,92.29
2018-01-17T06:34:57.433Z,92.22
2018-01-17T06:36:03.638Z,92.36
2018-01-17T06:37:09.687Z,91.96
2018-01-17T06:38:15.896Z,91.89
2018-01-17T06:39:21.822Z,91.80
2018-01-17T06:40:32.252Z,91.46
2018-01-17T06:41:39.646Z,91.33
2018-01-17T06:42:49.630Z,91.15
2018-01-17T06:43:56.004Z,91.06
2018-01-17T06:45:02.400Z,91.25
2018-01-17T06:46:08.774Z,91.02
2018-01-17T06:47:14.731Z,90.75
2018-01-17T06:48:20.994Z,90.84
2018-01-17T06:49:27.928Z,90.78
2018-01-17T06:50:34.361Z,90.98
2018-01-17T06:51:41.100Z,91.11
2018-01-17T06:52:47.282Z,91.40
2018-01-17T06:53:54.415Z,91.48
2018-01-17T06:55:00.998Z,91.44
2018-01-17T06:56:07.187Z,91.47
2018-01-17T06:57:13.454Z,91.54
2018-01-17T06:58:19.613Z,91.98
2018-01-17T06:59:26.435Z,92.41
2018-01-17T07:00:36.050Z,92.77
2018-01-17T07:01:42.216Z,93.45
2018-01-17T07:02:48.684Z,94.00
2018-01-17T07:03:55.126Z,94.05
2018-01-17T07:05:04.288Z,94.16
2018-01-17T07:06:11.369Z,94.55
2018-01-17T07:07:17.752Z,95.00
2018-01-17T07:08:23.936Z,95.82
2018-01-17T07:09:30.080Z,95.84
2018-01-17T07:10:35.941Z,96.10
2018-01-17T07:11:42.174Z,96.04
2018-01-17T07:12:49.433Z,96.50
2018-01-17T07:13:55.589Z,96.84
2018-01-17T07:15:01.789Z,97.29
2018-01-17T07:16:07.977Z,97.88
2018-01-17T07:17:14.260Z,98.08
2018-01-17T07:18:20.474Z,98.07
2018-01-17T07:19:26.791Z,98.04
2018-01-17T07:20:33.081Z,97.97
2018-01-17T07:21:39.228Z,97.99
2018-01-17T07:22:45.580Z,97.79
2018-01-17T07:23:51.824Z,98.10
2018-01-17T07:24:58.002Z,98.41
2018-01-17T07:26:05.831Z,98.50
2018-01-17T07:27:12.721Z,98.33
2018-01-17T07:28:18.995Z,98.36
2018-01-17T07:29:26.992Z,98.37
2018-01-17T07:30:32.892Z,98.55
2018-01-17T07:31:38.808Z,98.50
2018-01-17T07:32:45.175Z,98.23
2018-01-17T07:33:51.382Z,97.57
2018-01-17T07:34:57.516Z,96.87
2018-01-17T07:36:03.693Z,96.97
2018-01-17T07:37:10.007Z,97.16
2018-01-17T07:38:16.661Z,97.00
2018-01-17T07:39:23.394Z,96.90
2018-01-17T07:40:29.726Z,97.14
2018-01-17T07:41:35.923Z,96.73
2018-01-17T07:42:42.112Z,96.48
2018-01-17T07:43:48.301Z,96.55
2018-01-17T07:44:54.805Z,96.70
2018-01-17T07:46:01.938Z,96.05
2018-01-17T07:47:08.120Z,96.00
2018-01-17T07:48:15.047Z,96.04
2018-01-17T07:49:21.186Z,95.70
2018-01-17T07:50:27.600Z,95.59
2018-01-17T07:51:36.271Z,95.38
2018-01-17T07:52:42.476Z,95.22
2018-01-17T07:53:48.745Z,95.22
2018-01-17T07:54:56.155Z,95.18
2018-01-17T07:56:03.177Z,95.09
2018-01-17T07:57:09.622Z,95.33
2018-01-17T07:58:15.830Z,95.37
2018-01-17T07:59:22.046Z,95.17
2018-01-17T08:00:27.936Z,95.43
2018-01-17T08:01:34.129Z,95.40
2018-01-17T08:02:40.858Z,95.31
2018-01-17T08:03:47.354Z,95.58
2018-01-17T08:04:54.598Z,95.84
2018-01-17T08:06:01.201Z,95.57
2018-01-17T08:07:07.465Z,95.01
2018-01-17T08:08:14.262Z,94.67
2018-01-17T08:09:20.545Z,94.29
2018-01-17T08:10:26.809Z,94.18
2018-01-17T08:11:33.022Z,94.18
2018-01-17T08:12:42.797Z,94.16
2018-01-17T08:13:48.938Z,94.04
2018-01-17T08:14:55.373Z,94.14
2018-01-17T08:16:03.429Z,94.55
2018-01-17T08:17:09.705Z,94.43
2018-01-17T08:18:17.816Z,94.63
2018-01-17T08:19:24.031Z,94.30
2018-01-17T08:20:30.166Z,94.16
2018-01-17T08:21:36.276Z,93.55
2018-01-17T08:22:43.091Z,93.24
2018-01-17T08:23:49.275Z,93.23
2018-01-17T08:24:55.460Z,93.25
2018-01-17T08:26:01.150Z,93.47
2018-01-17T08:27:07.442Z,93.52
2018-01-17T08:28:13.735Z,93.56
2018-01-17T08:29:19.996Z,93.12
2018-01-17T08:30:26.248Z,92.86
2018-01-17T08:31:32.664Z,92.92
2018-01-17T08:32:38.919Z,92.70
2018-01-17T08:33:45.251Z,92.66
2018-01-17T08:34:51.427Z,92.52
2018-01-17T08:35:57.358Z,92.58
2018-01-17T08:37:03.637Z,92.46
2018-01-17T08:38:09.801Z,92.35
2018-01-17T08:39:22.185Z,92.18
2018-01-17T08:40:28.537Z,91.36
2018-01-17T08:41:34.759Z,91.32
2018-01-17T08:42:41.112Z,91.28
2018-01-17T08:43:47.365Z,91.50
2018-01-17T08:44:54.469Z,91.42
2018-01-17T08:46:00.994Z,91.36
2018-01-17T08:47:07.294Z,90.73
2018-01-17T08:48:13.717Z,90.43
2018-01-17T08:49:20.488Z,90.14
2018-01-17T08:50:26.441Z,89.62
2018-01-17T08:51:32.635Z,89.62
2018-01-17T08:52:39.760Z,89.73
2018-01-17T08:53:47.464Z,89.74
2018-01-17T08:54:53.647Z,89.73
2018-01-17T08:55:59.985Z,89.13
2018-01-17T08:57:06.302Z,88.37
2018-01-17T08:58:12.915Z,88.52
2018-01-17T08:59:19.626Z,88.36
2018-01-17T09:00:26.614Z,88.17
2018-01-17T09:01:32.629Z,88.26
2018-01-17T09:02:38.905Z,88.18
2018-01-17T09:03:45.082Z,88.01
2018-01-17T09:04:51.293Z,87.75
2018-01-17T09:05:57.526Z,87.36
2018-01-17T09:07:03.805Z,86.37
2018-01-17T09:08:10.014Z,86.41
2018-01-17T09:09:16.044Z,86.38
2018-01-17T09:10:21.920Z,86.10
2018-01-17T09:11:28.590Z,85.62
2018-01-17T09:12:34.765Z,85.79
2018-01-17T09:13:40.945Z,86.29
2018-01-17T09:14:47.208Z,86.35
2018-01-17T09:15:54.088Z,86.41
2018-01-17T09:17:00.504Z,85.88
2018-01-17T09:18:06.678Z,85.24
2018-01-17T09:19:12.945Z,84.79
2018-01-17T09:20:19.106Z,84.96
2018-01-17T09:21:25.245Z,85.49
2018-01-17T09:22:31.225Z,85.19
2018-01-17T09:23:37.336Z,84.50
2018-01-17T09:24:43.511Z,84.42
2018-01-17T09:25:49.638Z,84.16
2018-01-17T09:26:55.827Z,84.46
2018-01-17T09:28:02.484Z,84.24
2018-01-17T09:29:08.642Z,84.67
2018-01-17T09:30:14.802Z,84.49
2018-01-17T09:31:20.991Z,84.08
2018-01-17T09:32:27.267Z,84.22
2018-01-17T09:33:33.595Z,84.10
2018-01-17T09:34:40.133Z,84.49
2018-01-17T09:35:47.327Z,84.88
2018-01-17T09:36:53.817Z,84.85
2018-01-17T09:38:01.167Z,84.62
2018-01-17T09:39:07.460Z,84.96
2018-01-17T09:40:14.979Z,84.34
2018-01-17T09:41:21.825Z,84.34
2018-01-17T09:42:28.084Z,84.61
2018-01-17T09:43:34.780Z,84.82
2018-01-17T09:44:43.929Z,84.83
2018-01-17T09:45:51.486Z,84.65
2018-01-17T09:46:58.414Z,84.76
2018-01-17T09:48:04.625Z,84.68
2018-01-17T09:49:11.474Z,84.95
2018-01-17T09:50:19.049Z,84.75
2018-01-17T09:51:25.175Z,84.13
2018-01-17T09:52:32.608Z,83.62
2018-01-17T09:53:39.937Z,83.24
2018-01-17T09:54:46.570Z,82.97
2018-01-17T09:55:53.531Z,83.17
2018-01-17T09:57:00.404Z,83.22
2018-01-17T09:58:07.366Z,82.71
2018-01-17T09:59:15.034Z,82.37
2018-01-17T10:00:21.895Z,82.80
2018-01-17T10:01:28.295Z,82.04
2018-01-17T10:02:34.570Z,82.45
2018-01-17T10:03:40.575Z,81.71
2018-01-17T10:04:46.771Z,82.18
2018-01-17T10:05:52.981Z,82.14
2018-01-17T10:06:59.813Z,82.01
2018-01-17T10:08:06.972Z,82.16
2018-01-17T10:09:13.853Z,82.46
2018-01-17T10:10:20.654Z,81.78
2018-01-17T10:11:27.883Z,81.06
2018-01-17T10:12:34.582Z,80.92
2018-01-17T10:13:40.780Z,80.83
2018-01-17T10:14:47.494Z,80.45
2018-01-17T10:15:54.031Z,80.18
2018-01-17T10:17:00.362Z,80.67
2018-01-17T10:18:06.477Z,80.72
2018-01-17T10:19:14.068Z,80.89
2018-01-17T10:20:20.316Z,80.48
2018-01-17T10:21:26.421Z,80.33
2018-01-17T10:22:32.311Z,79.70
2018-01-17T10:23:38.657Z,79.70
2018-01-17T10:24:45.528Z,79.39
2018-01-17T10:25:54.376Z,79.34
2018-01-17T10:27:00.733Z,79.10
2018-01-17T10:28:07.669Z,79.68
2018-01-17T10:29:13.808Z,79.84
2018-01-17T10:30:19.940Z,80.05
2018-01-17T10:31:26.683Z,79.95
2018-01-17T10:32:32.892Z,79.87
2018-01-17T10:33:39.689Z,79.50
2018-01-17T10:34:45.956Z,79.39
2018-01-17T10:35:52.688Z,78.75
2018-01-17T10:36:58.957Z,78.54
2018-01-17T10:38:04.920Z,78.99
2018-01-17T10:39:11.165Z,79.17
2018-01-17T10:40:17.397Z,79.39
2018-01-17T10:41:24.517Z,78.89
2018-01-17T10:42:30.820Z,78.85
2018-01-17T10:43:37.041Z,79.31
2018-01-17T10:44:43.104Z,79.70
2018-01-17T10:45:49.416Z,80.04
2018-01-17T10:46:56.155Z,79.09
2018-01-17T10:48:02.445Z,79.21
2018-01-17T10:49:09.432Z,78.82
2018-01-17T10:50:15.577Z,78.85
2018-01-17T10:51:21.690Z,78.95
2018-01-17T10:52:28.420Z,78.73
2018-01-17T10:53:34.552Z,79.21
2018-01-17T10:54:41.849Z,78.79
2018-01-17T10:55:48.637Z,78.78
2018-01-17T10:56:55.385Z,77.98
2018-01-17T10:58:02.593Z,78.19
2018-01-17T10:59:08.814Z,78.96
2018-01-17T11:00:15.558Z,78.65
2018-01-17T11:01:21.840Z,78.12
2018-01-17T11:02:27.997Z,78.00
2018-01-17T11:03:35.191Z,78.47
2018-01-17T11:04:41.652Z,77.98
2018-01-17T11:05:47.959Z,77.65
2018-01-17T11:06:54.049Z,77.72
2018-01-17T11:08:00.215Z,77.16
2018-01-17T11:09:06.500Z,77.39
2018-01-17T11:10:14.116Z,77.79
2018-01-17T11:11:21.461Z,78.31
2018-01-17T11:12:28.321Z,78.14
2018-01-17T11:13:35.109Z,78.60
2018-01-17T11:14:42.211Z,78.21
2018-01-17T11:15:48.420Z,77.80
2018-01-17T11:16:55.453Z,77.35
2018-01-17T11:18:04.210Z,76.65
2018-01-17T11:19:12.017Z,77.34
2018-01-17T11:20:18.174Z,77.33
2018-01-17T11:21:24.664Z,77.94
2018-01-17T11:22:30.804Z,78.00
2018-01-17T11:23:37.079Z,77.03
2018-01-17T11:24:43.337Z,77.14
2018-01-17T11:25:50.126Z,77.18
2018-01-17T11:26:58.088Z,77.39
2018-01-17T11:28:04.352Z,77.29
2018-01-17T11:29:11.092Z,77.44
2018-01-17T11:30:18.076Z,77.41
2018-01-17T11:31:24.539Z,77.51
2018-01-17T11:32:30.884Z,77.40
2018-01-17T11:33:37.106Z,77.53
2018-01-17T11:34:43.399Z,76.83
2018-01-17T11:35:49.541Z,76.90
2018-01-17T11:36:55.499Z,77.19
2018-01-17T11:38:01.661Z,77.02
2018-01-17T11:39:13.691Z,77.29
2018-01-17T11:40:20.231Z,77.45
2018-01-17T11:41:26.514Z,76.99
2018-01-17T11:42:32.671Z,76.95
2018-01-17T11:43:38.826Z,77.84
2018-01-17T11:44:45.373Z,77.20
2018-01-17T11:45:52.020Z,77.00
2018-01-17T11:46:58.234Z,77.34
2018-01-17T11:48:04.992Z,77.43
2018-01-17T11:49:12.192Z,77.38
2018-01-17T11:50:18.183Z,77.29
2018-01-17T11:51:25.588Z,77.49
2018-01-17T11:52:31.708Z,77.13
2018-01-17T11:53:38.975Z,77.02
2018-01-17T11:54:45.199Z,77.34
2018-01-17T11:55:51.369Z,77.67
2018-01-17T11:56:59.247Z,77.53
2018-01-17T11:58:05.392Z,77.53
2018-01-17T11:59:11.396Z,76.81
2018-01-17T12:00:17.632Z,76.52
2018-01-17T12:01:24.504Z,76.72
2018-01-17T12:02:31.017Z,76.62
2018-01-17T12:03:38.547Z,76.50
2018-01-17T12:04:44.945Z,76.66
2018-01-17T12:05:51.914Z,76.52
2018-01-17T12:06:58.089Z,76.26
2018-01-17T12:08:04.415Z,76.38
2018-01-17T12:09:10.449Z,76.55
2018-01-17T12:10:16.633Z,77.25
2018-01-17T12:11:23.462Z,77.24
2018-01-17T12:12:29.731Z,77.70
2018-01-17T12:13:36.982Z,77.61
2018-01-17T12:14:43.246Z,77.27
2018-01-17T12:15:50.899Z,76.87
2018-01-17T12:16:58.676Z,76.91
2018-01-17T12:18:04.930Z,76.68
2018-01-17T12:19:11.121Z,76.37
2018-01-17T12:20:17.068Z,76.11
2018-01-17T12:21:23.372Z,75.79
2018-01-17T12:22:29.535Z,75.09
2018-01-17T12:23:36.059Z,75.16
2018-01-17T12:24:41.912Z,74.92
2018-01-17T12:25:48.562Z,75.28
2018-01-17T12:26:54.852Z,76.09
2018-01-17T12:28:01.146Z,75.47
2018-01-17T12:29:07.377Z,75.25
2018-01-17T12:30:13.559Z,75.41
2018-01-17T12:31:19.400Z,75.28
2018-01-17T12:32:25.655Z,75.15
2018-01-17T12:33:31.828Z,75.13
2018-01-17T12:34:37.999Z,75.05
2018-01-17T12:35:44.228Z,74.85
2018-01-17T12:36:50.616Z,74.76
2018-01-17T12:37:56.875Z,74.37
2018-01-17T12:39:03.938Z,74.83
2018-01-17T12:40:09.883Z,75.00
2018-01-17T12:41:16.780Z,74.74
2018-01-17T12:42:22.820Z,74.89
2018-01-17T12:43:28.933Z,74.40
2018-01-17T12:44:35.656Z,74.22
2018-01-17T12:45:42.750Z,74.68
2018-01-17T12:46:48.950Z,74.87
2018-01-17T12:47:55.395Z,75.01
2018-01-17T12:49:01.601Z,74.93
2018-01-17T12:50:08.789Z,75.03
2018-01-17T12:51:15.635Z,75.09
2018-01-17T12:52:21.827Z,75.21
2018-01-17T12:53:29.380Z,74.96
2018-01-17T12:54:35.471Z,75.54
2018-01-17T12:55:41.582Z,76.16
2018-01-17T12:56:47.711Z,76.70
2018-01-17T12:57:53.439Z,77.17
2018-01-17T12:59:00.452Z,77.81
2018-01-17T13:00:06.075Z,78.42
2018-01-17T13:01:12.246Z,78.37
2018-01-17T13:02:18.543Z,79.10
2018-01-17T13:03:25.580Z,79.21
2018-01-17T13:04:31.396Z,79.43
2018-01-17T13:05:37.229Z,79.66
2018-01-17T13:06:43.406Z,80.14
2018-01-17T13:07:49.544Z,80.48
2018-01-17T13:08:55.799Z,80.54
2018-01-17T13:10:01.997Z,80.88
2018-01-17T13:11:08.172Z,81.20
2018-01-17T13:12:14.301Z,81.46
2018-01-17T13:13:20.398Z,81.67
2018-01-17T13:14:26.608Z,81.54
2018-01-17T13:15:32.801Z,82.25
2018-01-17T13:16:38.965Z,82.48
2018-01-17T13:17:45.146Z,83.23
2018-01-17T13:18:51.286Z,84.09
2018-01-17T13:19:58.512Z,84.06
2018-01-17T13:21:04.654Z,84.26
2018-01-17T13:22:10.754Z,83.84
2018-01-17T13:23:17.018Z,83.87
2018-01-17T13:24:23.203Z,84.17
2018-01-17T13:25:29.493Z,83.98
2018-01-17T13:26:36.680Z,84.42
2018-01-17T13:27:42.766Z,84.26
2018-01-17T13:28:48.755Z,83.65
2018-01-17T13:29:54.956Z,83.38
2018-01-17T13:31:01.531Z,83.36
2018-01-17T13:32:08.090Z,83.56
2018-01-17T13:33:14.253Z,82.76
2018-01-17T13:34:20.486Z,82.49
2018-01-17T13:35:26.537Z,82.23
2018-01-17T13:36:32.789Z,82.39
2018-01-17T13:37:39.009Z,82.35
2018-01-17T13:38:46.172Z,81.84
2018-01-17T13:39:52.447Z,81.37
2018-01-17T13:40:58.945Z,81.17
2018-01-17T13:42:05.346Z,80.78
2018-01-17T13:43:11.571Z,80.80
2018-01-17T13:44:17.952Z,80.63
2018-01-17T13:45:24.200Z,79.92
2018-01-17T13:46:30.355Z,79.90
2018-01-17T13:47:36.557Z,79.67
2018-01-17T13:48:43.376Z,79.78
2018-01-17T13:49:49.702Z,79.78
2018-01-17T13:50:55.821Z,79.96
2018-01-17T13:52:02.590Z,80.06
2018-01-17T13:53:08.865Z,80.21
2018-01-17T13:54:15.054Z,80.07
2018-01-17T13:55:21.285Z,79.80
2018-01-17T13:56:27.426Z,79.82
2018-01-17T13:57:33.407Z,79.83
2018-01-17T13:58:39.244Z,79.64
2018-01-17T13:59:45.384Z,79.58
2018-01-17T14:00:51.540Z,79.31
2018-01-17T14:01:57.238Z,78.86
2018-01-17T14:03:03.565Z,78.14
2018-01-17T14:04:09.774Z,78.34
2018-01-17T14:05:17.416Z,78.33
2018-01-17T14:06:24.582Z,77.79
2018-01-17T14:07:30.746Z,77.67
2018-01-17T14:08:36.948Z,77.31
2018-01-17T14:09:43.143Z,76.99
2018-01-17T14:10:49.342Z,77.19
2018-01-17T14:11:55.501Z,76.54
2018-01-17T14:13:02.557Z,76.74
2018-01-17T14:14:08.980Z,76.69
2018-01-17T14:15:15.297Z,76.65
2018-01-17T14:16:21.405Z,76.71
2018-01-17T14:17:28.287Z,76.54
2018-01-17T14:18:34.483Z,76.46
2018-01-17T14:19:41.696Z,76.64